Terminal Aerodrome Forecast
Issued by NWS

Home | Current Version | Previous Version | Text Only | Print | Product List | Glossary On
Versions: 1 2 3 4 5 6 7 8 9 10 11 12 13 14
000
FTUS46 KLOX 260533
TAFPMD
TAF
KPMD 260533Z 2606/2706 23012KT P6SM SCT250
     FM260800 21008KT P6SM SCT250
     FM261900 23012KT P6SM SCT250
     FM262200 23016G26KT P6SM SCT250
     FM270100 24014KT P6SM SCT250=

USA.gov is the U.S. government's official web portal to all federal, state and local government web resources and services.